createdAt,value
2023-02-25T00:02:11.191Z,15.70
2023-02-25T00:04:42.198Z,15.70
2023-02-25T00:07:11.460Z,15.70
2023-02-25T00:09:40.144Z,15.70
2023-02-25T00:12:09.219Z,15.70
2023-02-25T00:14:37.879Z,15.70
2023-02-25T00:17:06.528Z,15.70
2023-02-25T00:19:35.155Z,15.70
2023-02-25T00:22:05.182Z,15.70
2023-02-25T00:24:33.849Z,15.70
2023-02-25T00:27:02.506Z,15.70
2023-02-25T00:29:31.243Z,15.70
2023-02-25T00:32:00.108Z,15.70
2023-02-25T00:34:29.291Z,15.70
2023-02-25T00:36:58.470Z,15.60
2023-02-25T00:39:41.933Z,15.60
2023-02-25T00:42:11.191Z,15.60
2023-02-25T00:44:40.099Z,15.60
2023-02-25T00:47:08.700Z,15.60
2023-02-25T00:49:37.383Z,15.60
2023-02-25T00:52:06.354Z,15.60
2023-02-25T00:54:36.669Z,15.60
2023-02-25T00:57:05.579Z,15.60
2023-02-25T00:59:34.593Z,15.50
2023-02-25T01:02:03.326Z,15.50
2023-02-25T01:04:32.376Z,15.50
2023-02-25T01:07:03.616Z,15.50
2023-02-25T01:09:32.540Z,15.50
2023-02-25T01:12:02.567Z,15.50
2023-02-25T01:14:31.336Z,15.50
2023-02-25T01:17:02.111Z,15.50
2023-02-25T01:19:31.143Z,15.40
2023-02-25T01:22:00.467Z,15.40
2023-02-25T01:24:31.534Z,15.40
2023-02-25T01:27:04.412Z,15.40
2023-02-25T01:29:36.920Z,15.40
2023-02-25T01:32:06.217Z,15.40
2023-02-25T01:34:35.185Z,15.40
2023-02-25T01:37:05.436Z,15.40
2023-02-25T01:39:34.611Z,15.30
2023-02-25T01:42:08.493Z,15.30
2023-02-25T01:45:18.609Z,15.30
2023-02-25T01:47:52.679Z,15.30
2023-02-25T01:50:24.180Z,15.30
2023-02-25T01:52:53.448Z,15.30
2023-02-25T01:55:22.480Z,15.30
2023-02-25T01:57:53.009Z,15.30
2023-02-25T02:00:23.067Z,15.30
2023-02-25T02:02:52.926Z,15.30
2023-02-25T02:05:23.889Z,15.30
2023-02-25T02:07:52.755Z,15.30
2023-02-25T02:10:21.504Z,15.30
2023-02-25T02:12:51.647Z,15.30
2023-02-25T02:15:20.330Z,15.30
2023-02-25T02:17:55.221Z,15.30
2023-02-25T02:20:30.040Z,15.30
2023-02-25T02:23:35.412Z,15.30
2023-02-25T02:26:43.676Z,15.30
2023-02-25T02:30:04.052Z,15.30
2023-02-25T02:32:41.004Z,15.30
2023-02-25T02:35:21.681Z,15.30
2023-02-25T02:38:01.659Z,15.30
2023-02-25T02:40:45.259Z,15.20
2023-02-25T02:43:29.166Z,15.20
2023-02-25T02:46:05.791Z,15.20
2023-02-25T02:48:46.237Z,15.20
2023-02-25T02:51:22.664Z,15.20
2023-02-25T02:53:55.644Z,15.20
2023-02-25T02:56:27.348Z,15.20
2023-02-25T02:59:01.324Z,15.20
2023-02-25T03:01:33.915Z,15.20
2023-02-25T03:04:07.470Z,15.20
2023-02-25T03:06:40.944Z,15.20
2023-02-25T03:09:13.691Z,15.20
2023-02-25T03:11:43.368Z,15.20
2023-02-25T03:14:14.163Z,15.20
2023-02-25T03:16:48.325Z,15.20
2023-02-25T03:19:22.516Z,15.20
2023-02-25T03:21:59.659Z,15.20
2023-02-25T03:24:34.236Z,15.20
2023-02-25T03:27:21.516Z,15.20
2023-02-25T03:29:52.154Z,15.20
2023-02-25T03:32:21.862Z,15.20
2023-02-25T03:34:57.443Z,15.20
2023-02-25T03:37:30.933Z,15.20
2023-02-25T03:40:07.254Z,15.20
2023-02-25T03:42:36.913Z,15.20
2023-02-25T03:45:09.723Z,15.20
2023-02-25T03:47:39.899Z,15.20
2023-02-25T03:50:15.523Z,15.20
2023-02-25T03:52:47.635Z,15.20
2023-02-25T03:55:35.955Z,15.20
2023-02-25T03:58:04.766Z,15.20
2023-02-25T04:00:35.379Z,15.20
2023-02-25T04:03:04.158Z,15.20
2023-02-25T04:05:36.066Z,15.20
2023-02-25T04:08:04.995Z,15.20
2023-02-25T04:10:36.000Z,15.20
2023-02-25T04:13:05.931Z,15.10
2023-02-25T04:15:34.580Z,15.20
2023-02-25T04:18:04.260Z,15.20
2023-02-25T04:20:34.674Z,15.20
2023-02-25T04:23:03.708Z,15.10
2023-02-25T04:25:32.365Z,15.10
2023-02-25T04:28:01.082Z,15.10
2023-02-25T04:30:29.762Z,15.10
2023-02-25T04:32:58.503Z,15.10
2023-02-25T04:35:27.184Z,15.10
2023-02-25T04:37:57.278Z,15.10
2023-02-25T04:40:26.539Z,15.10
2023-02-25T04:42:55.418Z,15.10
2023-02-25T04:45:26.962Z,15.10
2023-02-25T04:47:58.130Z,15.10
2023-02-25T04:50:27.595Z,15.10
2023-02-25T04:52:58.621Z,15.10
2023-02-25T04:55:27.207Z,15.10
2023-02-25T04:57:55.794Z,15.10
2023-02-25T05:00:25.536Z,15.10
2023-02-25T05:02:54.458Z,15.10
2023-02-25T05:05:23.098Z,15.10
2023-02-25T05:07:52.202Z,15.10
2023-02-25T05:10:22.321Z,15.10
2023-02-25T05:12:50.952Z,15.10
2023-02-25T05:15:19.808Z,15.10
2023-02-25T05:17:49.098Z,15.10
2023-02-25T05:20:18.431Z,15.10
2023-02-25T05:22:47.097Z,15.10
2023-02-25T05:25:16.006Z,15.10
2023-02-25T05:27:45.940Z,15.10
2023-02-25T05:30:16.007Z,15.10
2023-02-25T05:32:44.818Z,15.10
2023-02-25T05:35:13.499Z,15.10
2023-02-25T05:37:42.172Z,15.10
2023-02-25T05:40:14.204Z,15.10
2023-02-25T05:42:42.905Z,15.10
2023-02-25T05:45:13.251Z,15.10
2023-02-25T05:47:41.880Z,15.10
2023-02-25T05:50:12.337Z,15.10
2023-02-25T05:52:41.017Z,15.00
2023-02-25T05:55:11.152Z,15.00
2023-02-25T05:57:39.841Z,15.00
2023-02-25T06:00:14.865Z,15.00
2023-02-25T06:02:45.427Z,15.00
2023-02-25T06:05:14.693Z,15.00
2023-02-25T06:07:43.269Z,15.00
2023-02-25T06:10:13.185Z,15.00
2023-02-25T06:12:43.451Z,15.00
2023-02-25T06:15:14.606Z,15.00
2023-02-25T06:17:44.643Z,15.00
2023-02-25T06:20:16.517Z,15.00
2023-02-25T06:22:45.232Z,15.00
2023-02-25T06:25:13.826Z,15.00
2023-02-25T06:27:42.485Z,15.00
2023-02-25T06:30:12.656Z,15.00
2023-02-25T06:32:41.366Z,15.00
2023-02-25T06:35:11.763Z,15.00
2023-02-25T06:37:40.369Z,15.00
2023-02-25T06:40:12.514Z,15.00
2023-02-25T06:42:41.200Z,15.00
2023-02-25T06:45:11.182Z,15.00
2023-02-25T06:47:39.840Z,15.00
2023-02-25T06:50:12.262Z,15.00
2023-02-25T06:52:41.328Z,15.00
2023-02-25T06:55:11.317Z,15.00
2023-02-25T06:57:39.971Z,15.00
2023-02-25T07:00:10.535Z,15.00
2023-02-25T07:02:39.290Z,15.00
2023-02-25T07:05:08.299Z,15.00
